sensor_id;sensor_type;location;lat;lon;timestamp;temperature;humidity
7920;DHT22;18778;47.610;9.776;2023-07-16T00:01:03;21.70;99.90
7920;DHT22;18778;47.610;9.776;2023-07-16T00:03:28;21.70;99.90
7920;DHT22;18778;47.610;9.776;2023-07-16T00:05:54;21.70;99.90
7920;DHT22;18778;47.610;9.776;2023-07-16T00:08:19;21.70;99.90
7920;DHT22;18778;47.610;9.776;2023-07-16T00:10:45;21.70;99.90
7920;DHT22;18778;47.610;9.776;2023-07-16T00:13:11;21.70;99.90
7920;DHT22;18778;47.610;9.776;2023-07-16T00:15:36;21.70;99.90
7920;DHT22;18778;47.610;9.776;2023-07-16T00:18:02;21.60;99.90
7920;DHT22;18778;47.610;9.776;2023-07-16T00:20:27;21.50;99.90
7920;DHT22;18778;47.610;9.776;2023-07-16T00:22:54;21.50;99.90
7920;DHT22;18778;47.610;9.776;2023-07-16T00:25:20;21.40;99.90
7920;DHT22;18778;47.610;9.776;2023-07-16T00:27:46;21.30;99.90
7920;DHT22;18778;47.610;9.776;2023-07-16T00:30:11;21.30;99.90
7920;DHT22;18778;47.610;9.776;2023-07-16T00:32:38;21.20;99.90
7920;DHT22;18778;47.610;9.776;2023-07-16T00:35:04;21.20;99.90
7920;DHT22;18778;47.610;9.776;2023-07-16T00:37:31;21.10;99.90
7920;DHT22;18778;47.610;9.776;2023-07-16T00:39:56;20.90;99.90
7920;DHT22;18778;47.610;9.776;2023-07-16T00:42:22;20.90;99.90
7920;DHT22;18778;47.610;9.776;2023-07-16T00:44:48;20.80;99.90
7920;DHT22;18778;47.610;9.776;2023-07-16T00:47:13;20.80;99.90
7920;DHT22;18778;47.610;9.776;2023-07-16T00:49:39;20.70;99.90
7920;DHT22;18778;47.610;9.776;2023-07-16T00:52:09;20.70;99.90
7920;DHT22;18778;47.610;9.776;2023-07-16T00:54:36;20.70;99.90
7920;DHT22;18778;47.610;9.776;2023-07-16T00:57:02;20.70;99.90
7920;DHT22;18778;47.610;9.776;2023-07-16T00:59:28;20.70;99.90
7920;DHT22;18778;47.610;9.776;2023-07-16T01:01:53;20.70;99.90
7920;DHT22;18778;47.610;9.776;2023-07-16T01:04:19;20.80;99.90
7920;DHT22;18778;47.610;9.776;2023-07-16T01:06:48;20.80;99.90
7920;DHT22;18778;47.610;9.776;2023-07-16T01:09:17;20.70;99.90
7920;DHT22;18778;47.610;9.776;2023-07-16T01:11:44;20.60;99.90
7920;DHT22;18778;47.610;9.776;2023-07-16T01:14:12;20.50;99.90
7920;DHT22;18778;47.610;9.776;2023-07-16T01:16:38;20.50;99.90
7920;DHT22;18778;47.610;9.776;2023-07-16T01:19:04;20.40;99.90
7920;DHT22;18778;47.610;9.776;2023-07-16T01:22:07;20.40;99.90
7920;DHT22;18778;47.610;9.776;2023-07-16T01:24:50;20.30;99.90
7920;DHT22;18778;47.610;9.776;2023-07-16T01:27:41;20.30;99.90
7920;DHT22;18778;47.610;9.776;2023-07-16T01:30:11;20.20;99.90
7920;DHT22;18778;47.610;9.776;2023-07-16T01:32:41;20.20;99.90
7920;DHT22;18778;47.610;9.776;2023-07-16T01:35:08;20.10;99.90
7920;DHT22;18778;47.610;9.776;2023-07-16T01:37:34;20.00;99.90
7920;DHT22;18778;47.610;9.776;2023-07-16T01:40:01;19.80;99.90
7920;DHT22;18778;47.610;9.776;2023-07-16T01:42:26;19.70;99.90
7920;DHT22;18778;47.610;9.776;2023-07-16T01:44:52;19.30;99.90
7920;DHT22;18778;47.610;9.776;2023-07-16T01:47:40;18.90;99.90
7920;DHT22;18778;47.610;9.776;2023-07-16T01:50:09;18.30;99.90
7920;DHT22;18778;47.610;9.776;2023-07-16T01:52:35;18.30;99.90
7920;DHT22;18778;47.610;9.776;2023-07-16T01:55:00;18.10;99.90
7920;DHT22;18778;47.610;9.776;2023-07-16T01:57:26;18.00;99.90
7920;DHT22;18778;47.610;9.776;2023-07-16T01:59:51;17.90;99.90
7920;DHT22;18778;47.610;9.776;2023-07-16T02:02:17;17.80;99.90
7920;DHT22;18778;47.610;9.776;2023-07-16T02:04:42;17.70;99.90
7920;DHT22;18778;47.610;9.776;2023-07-16T02:07:08;17.70;99.90
7920;DHT22;18778;47.610;9.776;2023-07-16T02:09:34;17.60;99.90
7920;DHT22;18778;47.610;9.776;2023-07-16T02:12:00;17.50;99.90
7920;DHT22;18778;47.610;9.776;2023-07-16T02:14:26;17.30;99.90
7920;DHT22;18778;47.610;9.776;2023-07-16T02:16:51;17.20;99.90
7920;DHT22;18778;47.610;9.776;2023-07-16T02:19:17;17.10;99.90
7920;DHT22;18778;47.610;9.776;2023-07-16T02:21:42;17.10;99.90
7920;DHT22;18778;47.610;9.776;2023-07-16T02:24:08;17.10;99.90
7920;DHT22;18778;47.610;9.776;2023-07-16T02:26:34;17.00;99.90
7920;DHT22;18778;47.610;9.776;2023-07-16T02:28:59;16.90;99.90
7920;DHT22;18778;47.610;9.776;2023-07-16T02:31:25;16.90;99.90
7920;DHT22;18778;47.610;9.776;2023-07-16T02:38:43;17.10;99.90
7920;DHT22;18778;47.610;9.776;2023-07-16T02:41:08;17.20;99.90
7920;DHT22;18778;47.610;9.776;2023-07-16T02:43:34;17.20;99.90
7920;DHT22;18778;47.610;9.776;2023-07-16T02:45:59;17.20;99.90
7920;DHT22;18778;47.610;9.776;2023-07-16T02:48:25;17.10;99.90
7920;DHT22;18778;47.610;9.776;2023-07-16T02:50:50;17.10;99.90
7920;DHT22;18778;47.610;9.776;2023-07-16T02:53:16;17.20;99.90
7920;DHT22;18778;47.610;9.776;2023-07-16T02:55:42;17.10;99.90
7920;DHT22;18778;47.610;9.776;2023-07-16T02:58:07;17.00;99.90
7920;DHT22;18778;47.610;9.776;2023-07-16T03:00:33;16.90;99.90
7920;DHT22;18778;47.610;9.776;2023-07-16T03:02:59;16.90;99.90
7920;DHT22;18778;47.610;9.776;2023-07-16T03:05:26;16.80;99.90
7920;DHT22;18778;47.610;9.776;2023-07-16T03:07:51;16.70;99.90
7920;DHT22;18778;47.610;9.776;2023-07-16T03:10:17;16.70;99.90
7920;DHT22;18778;47.610;9.776;2023-07-16T03:12:43;16.80;99.90
7920;DHT22;18778;47.610;9.776;2023-07-16T03:15:09;16.90;99.90
7920;DHT22;18778;47.610;9.776;2023-07-16T03:17:35;17.00;99.90
7920;DHT22;18778;47.610;9.776;2023-07-16T03:20:00;17.00;99.90
7920;DHT22;18778;47.610;9.776;2023-07-16T03:22:26;17.10;99.90
7920;DHT22;18778;47.610;9.776;2023-07-16T03:24:51;17.10;99.90
7920;DHT22;18778;47.610;9.776;2023-07-16T03:27:17;17.10;99.90
7920;DHT22;18778;47.610;9.776;2023-07-16T03:29:43;17.10;99.90
7920;DHT22;18778;47.610;9.776;2023-07-16T03:32:08;17.10;99.90
7920;DHT22;18778;47.610;9.776;2023-07-16T03:34:34;17.00;99.90
7920;DHT22;18778;47.610;9.776;2023-07-16T03:36:59;16.90;99.90
7920;DHT22;18778;47.610;9.776;2023-07-16T03:39:25;16.90;99.90
7920;DHT22;18778;47.610;9.776;2023-07-16T03:41:50;16.90;99.90
7920;DHT22;18778;47.610;9.776;2023-07-16T03:44:16;17.00;99.90
7920;DHT22;18778;47.610;9.776;2023-07-16T03:46:42;17.00;99.90
7920;DHT22;18778;47.610;9.776;2023-07-16T03:49:08;16.80;99.90
7920;DHT22;18778;47.610;9.776;2023-07-16T03:51:34;16.70;99.90
7920;DHT22;18778;47.610;9.776;2023-07-16T03:53:59;16.70;99.90
7920;DHT22;18778;47.610;9.776;2023-07-16T03:56:25;16.70;99.90
7920;DHT22;18778;47.610;9.776;2023-07-16T03:58:51;16.60;99.90
7920;DHT22;18778;47.610;9.776;2023-07-16T04:01:16;16.70;99.90
7920;DHT22;18778;47.610;9.776;2023-07-16T04:03:42;16.70;99.90
7920;DHT22;18778;47.610;9.776;2023-07-16T04:06:08;16.70;99.90
7920;DHT22;18778;47.610;9.776;2023-07-16T04:08:35;16.70;99.90
7920;DHT22;18778;47.610;9.776;2023-07-16T04:11:04;16.80;99.90
7920;DHT22;18778;47.610;9.776;2023-07-16T04:15:56;16.90;99.90
7920;DHT22;18778;47.610;9.776;2023-07-16T04:20:49;16.90;99.90
7920;DHT22;18778;47.610;9.776;2023-07-16T04:23:14;16.90;99.90
7920;DHT22;18778;47.610;9.776;2023-07-16T04:25:40;17.00;99.90
7920;DHT22;18778;47.610;9.776;2023-07-16T04:28:06;17.00;99.90
7920;DHT22;18778;47.610;9.776;2023-07-16T04:30:31;17.00;99.90
7920;DHT22;18778;47.610;9.776;2023-07-16T04:32:57;17.00;99.90
7920;DHT22;18778;47.610;9.776;2023-07-16T04:35:23;17.00;99.90
7920;DHT22;18778;47.610;9.776;2023-07-16T04:37:48;17.00;99.90
7920;DHT22;18778;47.610;9.776;2023-07-16T04:40:14;16.90;99.90
7920;DHT22;18778;47.610;9.776;2023-07-16T04:45:06;16.70;99.90
7920;DHT22;18778;47.610;9.776;2023-07-16T04:47:32;16.80;99.90
7920;DHT22;18778;47.610;9.776;2023-07-16T04:49:58;16.80;99.90
7920;DHT22;18778;47.610;9.776;2023-07-16T04:52:24;16.90;99.90
7920;DHT22;18778;47.610;9.776;2023-07-16T04:54:49;16.90;99.90
7920;DHT22;18778;47.610;9.776;2023-07-16T04:57:15;16.90;99.90
7920;DHT22;18778;47.610;9.776;2023-07-16T04:59:41;16.80;99.90
7920;DHT22;18778;47.610;9.776;2023-07-16T05:02:07;16.80;99.90
7920;DHT22;18778;47.610;9.776;2023-07-16T05:04:35;16.80;99.90
7920;DHT22;18778;47.610;9.776;2023-07-16T05:11:54;16.90;99.90
7920;DHT22;18778;47.610;9.776;2023-07-16T05:14:19;16.90;99.90
7920;DHT22;18778;47.610;9.776;2023-07-16T05:16:45;16.90;99.90
7920;DHT22;18778;47.610;9.776;2023-07-16T05:19:11;16.90;99.90
7920;DHT22;18778;47.610;9.776;2023-07-16T05:21:36;16.00;99.90
7920;DHT22;18778;47.610;9.776;2023-07-16T05:24:02;16.90;99.90
7920;DHT22;18778;47.610;9.776;2023-07-16T05:26:28;16.90;99.90
7920;DHT22;18778;47.610;9.776;2023-07-16T05:28:53;16.90;99.90
7920;DHT22;18778;47.610;9.776;2023-07-16T05:31:19;16.90;99.90
7920;DHT22;18778;47.610;9.776;2023-07-16T05:33:44;16.90;99.90
7920;DHT22;18778;47.610;9.776;2023-07-16T05:36:10;17.00;99.90
7920;DHT22;18778;47.610;9.776;2023-07-16T05:38:36;17.10;99.90
7920;DHT22;18778;47.610;9.776;2023-07-16T05:41:03;17.20;99.90
7920;DHT22;18778;47.610;9.776;2023-07-16T05:43:29;17.20;99.90
7920;DHT22;18778;47.610;9.776;2023-07-16T05:45:54;17.30;99.90
7920;DHT22;18778;47.610;9.776;2023-07-16T05:48:20;17.40;99.90
7920;DHT22;18778;47.610;9.776;2023-07-16T05:50:46;17.50;99.90
7920;DHT22;18778;47.610;9.776;2023-07-16T05:53:12;17.60;99.90
7920;DHT22;18778;47.610;9.776;2023-07-16T05:55:40;17.80;99.90
7920;DHT22;18778;47.610;9.776;2023-07-16T06:02:58;17.70;99.90
7920;DHT22;18778;47.610;9.776;2023-07-16T06:05:23;17.80;99.90
7920;DHT22;18778;47.610;9.776;2023-07-16T06:07:51;17.90;99.90
7920;DHT22;18778;47.610;9.776;2023-07-16T06:10:17;18.00;99.90
7920;DHT22;18778;47.610;9.776;2023-07-16T06:12:42;18.30;99.90
7920;DHT22;18778;47.610;9.776;2023-07-16T06:15:08;18.40;99.90
7920;DHT22;18778;47.610;9.776;2023-07-16T06:17:34;18.50;99.90
7920;DHT22;18778;47.610;9.776;2023-07-16T06:20:00;18.50;99.90
7920;DHT22;18778;47.610;9.776;2023-07-16T06:24:51;18.70;99.90
7920;DHT22;18778;47.610;9.776;2023-07-16T06:27:17;18.70;99.90
7920;DHT22;18778;47.610;9.776;2023-07-16T06:29:42;18.70;99.90
7920;DHT22;18778;47.610;9.776;2023-07-16T06:32:09;18.90;99.90
7920;DHT22;18778;47.610;9.776;2023-07-16T06:34:34;19.20;99.90
7920;DHT22;18778;47.610;9.776;2023-07-16T06:39:26;19.60;99.90
7920;DHT22;18778;47.610;9.776;2023-07-16T06:44:17;19.80;99.90
7920;DHT22;18778;47.610;9.776;2023-07-16T06:46:43;19.80;99.90
7920;DHT22;18778;47.610;9.776;2023-07-16T06:49:08;19.80;99.90
7920;DHT22;18778;47.610;9.776;2023-07-16T06:51:34;19.60;99.90
7920;DHT22;18778;47.610;9.776;2023-07-16T06:58:52;19.30;99.90
7920;DHT22;18778;47.610;9.776;2023-07-16T07:01:17;19.20;99.90
7920;DHT22;18778;47.610;9.776;2023-07-16T07:03:43;19.20;99.90
7920;DHT22;18778;47.610;9.776;2023-07-16T07:06:09;19.10;99.90
7920;DHT22;18778;47.610;9.776;2023-07-16T07:08:36;19.00;99.90
7920;DHT22;18778;47.610;9.776;2023-07-16T07:11:20;19.00;99.90
7920;DHT22;18778;47.610;9.776;2023-07-16T07:13:46;19.00;99.90
7920;DHT22;18778;47.610;9.776;2023-07-16T07:16:11;19.00;99.90
7920;DHT22;18778;47.610;9.776;2023-07-16T07:18:37;19.00;99.90
7920;DHT22;18778;47.610;9.776;2023-07-16T07:21:03;19.60;99.90
7920;DHT22;18778;47.610;9.776;2023-07-16T07:23:28;19.60;99.90
7920;DHT22;18778;47.610;9.776;2023-07-16T07:25:54;19.70;99.90
7920;DHT22;18778;47.610;9.776;2023-07-16T07:28:20;19.80;99.90
7920;DHT22;18778;47.610;9.776;2023-07-16T07:30:46;19.80;99.90
7920;DHT22;18778;47.610;9.776;2023-07-16T07:33:12;19.80;99.90
7920;DHT22;18778;47.610;9.776;2023-07-16T07:35:38;20.00;99.90
7920;DHT22;18778;47.610;9.776;2023-07-16T07:38:04;20.20;99.90
7920;DHT22;18778;47.610;9.776;2023-07-16T07:40:29;20.50;99.90
7920;DHT22;18778;47.610;9.776;2023-07-16T07:42:55;20.80;99.90
7920;DHT22;18778;47.610;9.776;2023-07-16T07:45:21;21.00;99.90
7920;DHT22;18778;47.610;9.776;2023-07-16T07:47:46;21.20;99.90
7920;DHT22;18778;47.610;9.776;2023-07-16T07:50:12;21.30;99.90
7920;DHT22;18778;47.610;9.776;2023-07-16T07:52:38;21.30;99.90
7920;DHT22;18778;47.610;9.776;2023-07-16T07:55:03;21.30;99.90
7920;DHT22;18778;47.610;9.776;2023-07-16T07:57:29;21.20;99.90
7920;DHT22;18778;47.610;9.776;2023-07-16T07:59:55;21.10;99.90
7920;DHT22;18778;47.610;9.776;2023-07-16T08:02:26;21.10;99.90
7920;DHT22;18778;47.610;9.776;2023-07-16T08:04:53;21.30;99.90
7920;DHT22;18778;47.610;9.776;2023-07-16T08:07:19;21.30;99.90
7920;DHT22;18778;47.610;9.776;2023-07-16T08:09:46;21.30;99.90
7920;DHT22;18778;47.610;9.776;2023-07-16T08:12:12;21.20;99.90
7920;DHT22;18778;47.610;9.776;2023-07-16T08:14:38;21.30;99.90
7920;DHT22;18778;47.610;9.776;2023-07-16T08:17:03;21.00;99.90
7920;DHT22;18778;47.610;9.776;2023-07-16T08:19:30;20.90;99.90
7920;DHT22;18778;47.610;9.776;2023-07-16T08:21:56;20.90;99.90
7920;DHT22;18778;47.610;9.776;2023-07-16T08:24:21;20.80;99.90
7920;DHT22;18778;47.610;9.776;2023-07-16T08:26:47;20.90;99.90
7920;DHT22;18778;47.610;9.776;2023-07-16T08:29:13;21.00;99.90
7920;DHT22;18778;47.610;9.776;2023-07-16T08:31:39;21.00;99.90
7920;DHT22;18778;47.610;9.776;2023-07-16T08:34:04;21.00;99.90
7920;DHT22;18778;47.610;9.776;2023-07-16T08:36:30;21.10;99.90
7920;DHT22;18778;47.610;9.776;2023-07-16T08:38:55;21.20;99.90
7920;DHT22;18778;47.610;9.776;2023-07-16T08:41:21;21.40;99.90
7920;DHT22;18778;47.610;9.776;2023-07-16T08:43:47;21.50;99.90
7920;DHT22;18778;47.610;9.776;2023-07-16T08:46:14;21.80;99.90
7920;DHT22;18778;47.610;9.776;2023-07-16T08:48:40;21.80;99.90
7920;DHT22;18778;47.610;9.776;2023-07-16T08:51:07;22.20;99.90
7920;DHT22;18778;47.610;9.776;2023-07-16T08:53:34;22.30;99.90
7920;DHT22;18778;47.610;9.776;2023-07-16T08:56:04;22.50;99.90
7920;DHT22;18778;47.610;9.776;2023-07-16T08:58:31;22.80;99.90
7920;DHT22;18778;47.610;9.776;2023-07-16T09:00:57;23.30;99.90
7920;DHT22;18778;47.610;9.776;2023-07-16T09:03:23;23.30;99.90
7920;DHT22;18778;47.610;9.776;2023-07-16T09:05:49;23.50;99.90
7920;DHT22;18778;47.610;9.776;2023-07-16T09:08:14;23.70;99.90
7920;DHT22;18778;47.610;9.776;2023-07-16T09:10:43;24.00;99.90
7920;DHT22;18778;47.610;9.776;2023-07-16T09:13:09;23.60;99.90
7920;DHT22;18778;47.610;9.776;2023-07-16T09:15:35;23.50;99.90
7920;DHT22;18778;47.610;9.776;2023-07-16T09:18:01;23.00;99.90
7920;DHT22;18778;47.610;9.776;2023-07-16T09:20:27;22.80;99.90
7920;DHT22;18778;47.610;9.776;2023-07-16T09:22:55;22.90;99.90
7920;DHT22;18778;47.610;9.776;2023-07-16T09:25:28;22.90;99.90
7920;DHT22;18778;47.610;9.776;2023-07-16T09:27:54;23.00;99.90
7920;DHT22;18778;47.610;9.776;2023-07-16T09:30:20;23.00;99.90
7920;DHT22;18778;47.610;9.776;2023-07-16T09:32:46;23.10;99.90
7920;DHT22;18778;47.610;9.776;2023-07-16T09:35:16;23.30;99.90
7920;DHT22;18778;47.610;9.776;2023-07-16T09:37:43;23.20;99.90
7920;DHT22;18778;47.610;9.776;2023-07-16T09:40:10;23.30;99.90
7920;DHT22;18778;47.610;9.776;2023-07-16T09:42:41;23.30;99.90
7920;DHT22;18778;47.610;9.776;2023-07-16T09:45:08;23.00;99.90
7920;DHT22;18778;47.610;9.776;2023-07-16T09:47:37;23.10;99.90
7920;DHT22;18778;47.610;9.776;2023-07-16T09:50:03;23.50;99.90
7920;DHT22;18778;47.610;9.776;2023-07-16T09:52:32;23.80;99.90
7920;DHT22;18778;47.610;9.776;2023-07-16T09:57:28;23.90;99.90
7920;DHT22;18778;47.610;9.776;2023-07-16T09:59:56;23.70;99.90
7920;DHT22;18778;47.610;9.776;2023-07-16T10:02:23;23.50;99.90
7920;DHT22;18778;47.610;9.776;2023-07-16T10:04:49;23.40;99.90
7920;DHT22;18778;47.610;9.776;2023-07-16T10:07:22;23.80;99.90
7920;DHT22;18778;47.610;9.776;2023-07-16T10:09:56;24.40;99.90
7920;DHT22;18778;47.610;9.776;2023-07-16T10:12:26;24.70;99.90
7920;DHT22;18778;47.610;9.776;2023-07-16T10:14:53;24.70;99.90
7920;DHT22;18778;47.610;9.776;2023-07-16T10:17:26;24.70;99.90
7920;DHT22;18778;47.610;9.776;2023-07-16T10:20:08;24.60;99.90
7920;DHT22;18778;47.610;9.776;2023-07-16T10:22:42;24.40;99.90
7920;DHT22;18778;47.610;9.776;2023-07-16T10:27:43;24.10;99.90
7920;DHT22;18778;47.610;9.776;2023-07-16T10:30:09;24.20;99.90
7920;DHT22;18778;47.610;9.776;2023-07-16T10:32:34;24.30;99.90
7920;DHT22;18778;47.610;9.776;2023-07-16T10:35:01;24.30;99.90
7920;DHT22;18778;47.610;9.776;2023-07-16T10:39:55;23.90;99.90
7920;DHT22;18778;47.610;9.776;2023-07-16T10:42:23;24.00;99.90
7920;DHT22;18778;47.610;9.776;2023-07-16T10:44:50;24.10;99.90
7920;DHT22;18778;47.610;9.776;2023-07-16T10:47:28;24.40;99.90
7920;DHT22;18778;47.610;9.776;2023-07-16T10:49:54;24.30;99.90
7920;DHT22;18778;47.610;9.776;2023-07-16T10:52:21;24.30;99.90
7920;DHT22;18778;47.610;9.776;2023-07-16T10:54:47;24.20;99.90
7920;DHT22;18778;47.610;9.776;2023-07-16T10:57:15;24.30;99.90
7920;DHT22;18778;47.610;9.776;2023-07-16T10:59:42;24.40;99.90
7920;DHT22;18778;47.610;9.776;2023-07-16T11:02:12;24.80;99.90
7920;DHT22;18778;47.610;9.776;2023-07-16T11:04:39;24.80;99.90
7920;DHT22;18778;47.610;9.776;2023-07-16T11:07:09;25.20;99.90
7920;DHT22;18778;47.610;9.776;2023-07-16T11:09:50;25.70;99.90
7920;DHT22;18778;47.610;9.776;2023-07-16T11:12:18;25.90;99.90
7920;DHT22;18778;47.610;9.776;2023-07-16T11:14:46;26.10;99.90
7920;DHT22;18778;47.610;9.776;2023-07-16T11:17:13;26.00;99.90
7920;DHT22;18778;47.610;9.776;2023-07-16T11:19:40;25.70;99.90
7920;DHT22;18778;47.610;9.776;2023-07-16T11:22:07;25.50;99.90
7920;DHT22;18778;47.610;9.776;2023-07-16T11:24:40;25.60;99.90
7920;DHT22;18778;47.610;9.776;2023-07-16T11:27:16;25.90;99.90
7920;DHT22;18778;47.610;9.776;2023-07-16T11:29:46;26.30;99.90
7920;DHT22;18778;47.610;9.776;2023-07-16T11:32:13;26.20;99.90
7920;DHT22;18778;47.610;9.776;2023-07-16T11:34:51;26.40;99.90
7920;DHT22;18778;47.610;9.776;2023-07-16T11:37:17;26.70;99.90
7920;DHT22;18778;47.610;9.776;2023-07-16T11:39:43;26.50;99.90
7920;DHT22;18778;47.610;9.776;2023-07-16T11:42:09;26.50;99.90
7920;DHT22;18778;47.610;9.776;2023-07-16T11:44:35;26.50;99.90
7920;DHT22;18778;47.610;9.776;2023-07-16T11:47:03;26.50;99.90
7920;DHT22;18778;47.610;9.776;2023-07-16T11:49:29;26.30;99.90
7920;DHT22;18778;47.610;9.776;2023-07-16T11:51:55;26.40;99.90
7920;DHT22;18778;47.610;9.776;2023-07-16T11:54:20;26.40;99.90
7920;DHT22;18778;47.610;9.776;2023-07-16T11:59:13;26.10;99.90
7920;DHT22;18778;47.610;9.776;2023-07-16T12:01:39;26.40;99.90
7920;DHT22;18778;47.610;9.776;2023-07-16T12:04:04;26.30;99.90
7920;DHT22;18778;47.610;9.776;2023-07-16T12:06:30;26.10;99.90
7920;DHT22;18778;47.610;9.776;2023-07-16T12:08:55;26.00;99.90
7920;DHT22;18778;47.610;9.776;2023-07-16T12:11:21;26.10;99.90
7920;DHT22;18778;47.610;9.776;2023-07-16T12:13:47;26.50;99.90
7920;DHT22;18778;47.610;9.776;2023-07-16T12:16:13;26.70;99.90
7920;DHT22;18778;47.610;9.776;2023-07-16T12:18:38;26.60;99.90
7920;DHT22;18778;47.610;9.776;2023-07-16T12:21:04;26.30;99.90
7920;DHT22;18778;47.610;9.776;2023-07-16T12:23:31;26.20;99.90
7920;DHT22;18778;47.610;9.776;2023-07-16T12:25:57;26.40;99.90
7920;DHT22;18778;47.610;9.776;2023-07-16T12:28:22;26.20;99.90
7920;DHT22;18778;47.610;9.776;2023-07-16T12:30:48;26.10;99.90
7920;DHT22;18778;47.610;9.776;2023-07-16T12:33:13;26.10;99.90
7920;DHT22;18778;47.610;9.776;2023-07-16T12:35:39;26.30;99.90
7920;DHT22;18778;47.610;9.776;2023-07-16T12:38:04;26.40;99.90
7920;DHT22;18778;47.610;9.776;2023-07-16T12:40:30;26.30;99.90
7920;DHT22;18778;47.610;9.776;2023-07-16T12:42:56;26.40;99.90
7920;DHT22;18778;47.610;9.776;2023-07-16T12:45:22;26.50;99.90
7920;DHT22;18778;47.610;9.776;2023-07-16T12:47:48;26.50;99.90
7920;DHT22;18778;47.610;9.776;2023-07-16T12:50:15;26.60;99.90
7920;DHT22;18778;47.610;9.776;2023-07-16T12:55:07;26.60;99.90
7920;DHT22;18778;47.610;9.776;2023-07-16T12:57:35;26.80;99.90
7920;DHT22;18778;47.610;9.776;2023-07-16T13:00:01;26.70;99.90
7920;DHT22;18778;47.610;9.776;2023-07-16T13:02:30;26.70;99.90
7920;DHT22;18778;47.610;9.776;2023-07-16T13:04:56;26.90;99.90
7920;DHT22;18778;47.610;9.776;2023-07-16T13:07:21;27.00;99.90
7920;DHT22;18778;47.610;9.776;2023-07-16T13:09:47;27.00;99.90
7920;DHT22;18778;47.610;9.776;2023-07-16T13:12:12;27.00;99.90
7920;DHT22;18778;47.610;9.776;2023-07-16T13:14:38;26.90;99.90
7920;DHT22;18778;47.610;9.776;2023-07-16T13:17:03;27.00;99.90
7920;DHT22;18778;47.610;9.776;2023-07-16T13:19:30;27.30;99.90
7920;DHT22;18778;47.610;9.776;2023-07-16T13:21:56;27.40;99.90
7920;DHT22;18778;47.610;9.776;2023-07-16T13:24:21;27.40;99.90
7920;DHT22;18778;47.610;9.776;2023-07-16T13:26:47;27.20;99.90
7920;DHT22;18778;47.610;9.776;2023-07-16T13:29:12;27.60;99.90
7920;DHT22;18778;47.610;9.776;2023-07-16T13:31:38;28.40;99.90
7920;DHT22;18778;47.610;9.776;2023-07-16T13:34:03;28.40;99.90
7920;DHT22;18778;47.610;9.776;2023-07-16T13:36:29;28.40;99.90
7920;DHT22;18778;47.610;9.776;2023-07-16T13:41:21;28.40;99.90
7920;DHT22;18778;47.610;9.776;2023-07-16T13:43:46;28.50;99.90
7920;DHT22;18778;47.610;9.776;2023-07-16T13:46:12;28.80;99.90
7920;DHT22;18778;47.610;9.776;2023-07-16T13:48:37;29.10;99.90
7920;DHT22;18778;47.610;9.776;2023-07-16T13:51:04;29.10;99.90
7920;DHT22;18778;47.610;9.776;2023-07-16T13:53:30;29.20;99.90
7920;DHT22;18778;47.610;9.776;2023-07-16T13:55:56;29.50;99.90
7920;DHT22;18778;47.610;9.776;2023-07-16T13:58:21;29.60;99.10
7920;DHT22;18778;47.610;9.776;2023-07-16T14:00:47;29.70;99.90
7920;DHT22;18778;47.610;9.776;2023-07-16T14:03:12;29.60;99.70
7920;DHT22;18778;47.610;9.776;2023-07-16T14:05:38;29.60;98.40
7920;DHT22;18778;47.610;9.776;2023-07-16T14:08:07;29.40;97.00
7920;DHT22;18778;47.610;9.776;2023-07-16T14:10:33;29.40;99.20
7920;DHT22;18778;47.610;9.776;2023-07-16T14:12:59;29.70;99.90
7920;DHT22;18778;47.610;9.776;2023-07-16T14:15:25;30.20;99.70
7920;DHT22;18778;47.610;9.776;2023-07-16T14:17:50;30.90;95.20
7920;DHT22;18778;47.610;9.776;2023-07-16T14:20:16;31.30;95.40
7920;DHT22;18778;47.610;9.776;2023-07-16T14:22:42;31.50;95.80
7920;DHT22;18778;47.610;9.776;2023-07-16T14:25:07;32.10;93.20
7920;DHT22;18778;47.610;9.776;2023-07-16T14:27:34;32.60;93.70
7920;DHT22;18778;47.610;9.776;2023-07-16T14:30:00;32.50;92.60
7920;DHT22;18778;47.610;9.776;2023-07-16T14:32:25;32.80;91.30
7920;DHT22;18778;47.610;9.776;2023-07-16T14:34:51;33.20;91.90
7920;DHT22;18778;47.610;9.776;2023-07-16T14:37:17;34.10;86.10
7920;DHT22;18778;47.610;9.776;2023-07-16T14:39:43;34.00;79.30
7920;DHT22;18778;47.610;9.776;2023-07-16T14:42:08;33.30;82.20
7920;DHT22;18778;47.610;9.776;2023-07-16T14:44:34;33.40;82.00
7920;DHT22;18778;47.610;9.776;2023-07-16T14:47:00;33.90;84.50
7920;DHT22;18778;47.610;9.776;2023-07-16T14:49:25;34.70;83.80
7920;DHT22;18778;47.610;9.776;2023-07-16T14:51:51;35.70;75.70
7920;DHT22;18778;47.610;9.776;2023-07-16T14:54:17;35.70;76.10
7920;DHT22;18778;47.610;9.776;2023-07-16T14:56:42;36.20;77.00
7920;DHT22;18778;47.610;9.776;2023-07-16T14:59:08;36.20;76.90
7920;DHT22;18778;47.610;9.776;2023-07-16T15:01:34;36.80;71.50
7920;DHT22;18778;47.610;9.776;2023-07-16T15:04:00;36.70;72.10
7920;DHT22;18778;47.610;9.776;2023-07-16T15:06:25;36.80;66.10
7920;DHT22;18778;47.610;9.776;2023-07-16T15:08:51;36.40;65.00
7920;DHT22;18778;47.610;9.776;2023-07-16T15:11:17;36.50;65.60
7920;DHT22;18778;47.610;9.776;2023-07-16T15:13:42;36.80;68.80
7920;DHT22;18778;47.610;9.776;2023-07-16T15:16:08;36.40;68.70
7920;DHT22;18778;47.610;9.776;2023-07-16T15:18:33;35.20;66.70
7920;DHT22;18778;47.610;9.776;2023-07-16T15:21:00;34.40;68.60
7920;DHT22;18778;47.610;9.776;2023-07-16T15:23:27;33.90;69.90
7920;DHT22;18778;47.610;9.776;2023-07-16T15:25:54;33.60;69.90
7920;DHT22;18778;47.610;9.776;2023-07-16T15:28:20;32.60;74.00
7920;DHT22;18778;47.610;9.776;2023-07-16T15:30:47;32.60;75.00
7920;DHT22;18778;47.610;9.776;2023-07-16T15:33:12;32.40;72.60
7920;DHT22;18778;47.610;9.776;2023-07-16T15:35:38;32.00;76.40
7920;DHT22;18778;47.610;9.776;2023-07-16T15:38:03;32.70;75.00
7920;DHT22;18778;47.610;9.776;2023-07-16T15:40:32;33.30;73.90
7920;DHT22;18778;47.610;9.776;2023-07-16T15:42:58;33.10;79.00
7920;DHT22;18778;47.610;9.776;2023-07-16T15:45:24;33.00;77.30
7920;DHT22;18778;47.610;9.776;2023-07-16T15:47:50;32.90;72.30
7920;DHT22;18778;47.610;9.776;2023-07-16T15:50:22;32.00;74.70
7920;DHT22;18778;47.610;9.776;2023-07-16T15:52:48;32.20;77.30
7920;DHT22;18778;47.610;9.776;2023-07-16T15:55:14;33.00;71.90
7920;DHT22;18778;47.610;9.776;2023-07-16T15:57:39;33.70;73.20
7920;DHT22;18778;47.610;9.776;2023-07-16T16:00:07;34.70;72.80
7920;DHT22;18778;47.610;9.776;2023-07-16T16:02:43;35.40;66.70
7920;DHT22;18778;47.610;9.776;2023-07-16T16:05:09;36.10;69.20
7920;DHT22;18778;47.610;9.776;2023-07-16T16:07:35;35.80;67.40
7920;DHT22;18778;47.610;9.776;2023-07-16T16:10:02;35.20;66.40
7920;DHT22;18778;47.610;9.776;2023-07-16T16:12:28;33.30;74.60
7920;DHT22;18778;47.610;9.776;2023-07-16T16:14:53;33.30;75.30
7920;DHT22;18778;47.610;9.776;2023-07-16T16:17:19;32.90;71.80
7920;DHT22;18778;47.610;9.776;2023-07-16T16:19:44;32.70;76.00
7920;DHT22;18778;47.610;9.776;2023-07-16T16:22:10;33.30;75.70
7920;DHT22;18778;47.610;9.776;2023-07-16T16:24:36;33.70;74.60
7920;DHT22;18778;47.610;9.776;2023-07-16T16:27:01;34.40;73.10
7920;DHT22;18778;47.610;9.776;2023-07-16T16:29:27;35.30;72.00